Cherokee, Kansas
Current Conditions -  °F | °C
As of 3:35 PM on Saturday 20 Dec 2014 (Local Time) from KPTS Reporting Station
Overcast Overcast  
Wind Chill: 38°   Ceiling: 1800
Heat Index: 43°   Visibility: 10mi
Dew Point: 37°   Wind: 8mph
Humidity: 81%   Direction: 210°SSW
Pressure: 30.16"   Gusts: NA
Location:  37.35°N, 94.81°W
Report Text: KPTS 202135Z AUTO 21007KT 10SM OVC018 06/03 A3016 RMK AO2 T00600029
Loading
Personal Weather Stations






























Interactive Weather Map New forecast layout! Learn more

10-Day Weather Forecast

Advertisements
Track Severe Weather on mobile